Time;durP1;ratioP1;P1;durP2;ratioP2;P2;SDS_P1;SDS_P2;PMS_P1;PMS_P2;Temp;Humidity;BMP_temperature;BMP_pressure;BME280_temperature;BME280_humidity;BME280_pressure;Samples;Min_cycle;Max_cycle;Signal;HPM_P1;HPM_P2
2024/01/23 00:00:17;;;;;;;21.73;6.05;;;;;;;;;;5073453;28;20021;-72
2024/01/23 00:03:03;;;;;;;23.88;4.40;;;;;;;;;;5073234;28;20055;-73
2024/01/23 00:05:48;;;;;;;33.13;6.05;;;;;;;;;;5069634;28;20062;-73
2024/01/23 00:08:34;;;;;;;21.17;5.28;;;;;;;;;;5070488;28;20103;-72
2024/01/23 00:11:20;;;;;;;23.75;4.68;;;;;;;;;;5071206;28;20028;-73
2024/01/23 00:14:06;;;;;;;23.35;4.75;;;;;;;;;;5072539;28;20036;-73
2024/01/23 00:16:51;;;;;;;29.80;5.13;;;;;;;;;;5053495;28;20027;-73
2024/01/23 00:19:37;;;;;;;23.58;4.65;;;;;;;;;;5053158;28;20437;-73
2024/01/23 00:22:22;;;;;;;25.63;5.32;;;;;;;;;;5062976;28;20020;-73
2024/01/23 00:25:08;;;;;;;35.03;4.38;;;;;;;;;;5072080;28;20028;-73
2024/01/23 00:27:54;;;;;;;31.20;4.32;;;;;;;;;;5066383;28;20032;-73
2024/01/23 00:30:40;;;;;;;20.85;4.80;;;;;;;;;;5053243;28;20083;-73
2024/01/23 00:33:26;;;;;;;34.33;6.22;;;;;;;;;;5056600;28;20021;-72
2024/01/23 00:36:11;;;;;;;21.02;4.38;;;;;;;;;;5054390;28;20025;-72
2024/01/23 00:38:57;;;;;;;19.05;4.38;;;;;;;;;;5061685;28;20112;-72
2024/01/23 00:41:42;;;;;;;25.45;5.20;;;;;;;;;;5053916;28;20029;-73
2024/01/23 00:44:28;;;;;;;25.88;4.97;;;;;;;;;;5056518;28;20375;-72
2024/01/23 00:47:14;;;;;;;26.92;4.78;;;;;;;;;;5053323;28;20033;-72
2024/01/23 00:49:59;;;;;;;22.20;4.60;;;;;;;;;;5055579;28;20025;-72
2024/01/23 00:52:45;;;;;;;25.92;4.72;;;;;;;;;;5059252;28;20081;-72
2024/01/23 00:55:31;;;;;;;20.90;4.38;;;;;;;;;;5071616;28;20047;-72
2024/01/23 00:58:16;;;;;;;17.00;4.72;;;;;;;;;;5067605;28;20032;-72
2024/01/23 01:01:02;;;;;;;25.75;4.03;;;;;;;;;;5072531;28;20397;-72
2024/01/23 01:03:48;;;;;;;22.67;5.85;;;;;;;;;;5060849;28;20486;-72
2024/01/23 01:06:33;;;;;;;21.98;3.90;;;;;;;;;;5052696;28;20462;-72
2024/01/23 01:09:19;;;;;;;14.82;2.80;;;;;;;;;;5053209;28;20021;-72
2024/01/23 01:12:05;;;;;;;20.60;3.50;;;;;;;;;;5057820;28;20111;-73
2024/01/23 01:14:51;;;;;;;19.25;4.20;;;;;;;;;;5052588;28;20021;-73
2024/01/23 01:17:36;;;;;;;21.77;4.40;;;;;;;;;;5060908;28;20020;-72
2024/01/23 01:20:22;;;;;;;21.70;3.38;;;;;;;;;;5053679;28;20112;-72
2024/01/23 01:23:08;;;;;;;20.58;3.95;;;;;;;;;;5052142;28;20116;-72
2024/01/23 01:25:53;;;;;;;26.65;3.25;;;;;;;;;;5056671;28;20406;-72
2024/01/23 01:28:39;;;;;;;29.48;5.18;;;;;;;;;;5053396;28;20025;-72
2024/01/23 01:31:24;;;;;;;24.45;4.10;;;;;;;;;;5049901;28;20478;-72
2024/01/23 01:34:11;;;;;;;13.73;4.15;;;;;;;;;;5058040;28;20032;-72
2024/01/23 01:36:57;;;;;;;20.63;4.93;;;;;;;;;;5052327;28;20505;-72
2024/01/23 01:39:43;;;;;;;21.48;3.63;;;;;;;;;;5071962;28;20029;-73
2024/01/23 01:42:29;;;;;;;26.48;3.92;;;;;;;;;;5069196;28;20029;-72
2024/01/23 01:45:14;;;;;;;22.58;4.80;;;;;;;;;;5055779;28;20049;-73
2024/01/23 01:48:00;;;;;;;27.88;5.22;;;;;;;;;;5051643;28;20392;-72
2024/01/23 01:50:45;;;;;;;17.67;3.63;;;;;;;;;;5051314;28;20025;-72
2024/01/23 01:53:32;;;;;;;26.27;5.22;;;;;;;;;;5054182;28;20036;-72
2024/01/23 01:56:18;;;;;;;55.08;6.40;;;;;;;;;;5052364;28;20047;-73
2024/01/23 01:59:04;;;;;;;22.45;5.65;;;;;;;;;;5059405;28;20017;-72
2024/01/23 02:01:50;;;;;;;21.90;4.30;;;;;;;;;;5070819;28;20615;-72
2024/01/23 02:04:36;;;;;;;30.50;5.22;;;;;;;;;;5072351;28;20040;-73
2024/01/23 02:07:21;;;;;;;18.88;3.63;;;;;;;;;;5071631;28;20029;-72
2024/01/23 02:10:07;;;;;;;19.42;3.58;;;;;;;;;;5066942;28;20021;-72
2024/01/23 02:12:53;;;;;;;23.08;5.22;;;;;;;;;;5051933;28;20044;-72
2024/01/23 02:15:38;;;;;;;29.55;5.95;;;;;;;;;;5060123;28;20017;-73
2024/01/23 02:18:24;;;;;;;31.08;5.63;;;;;;;;;;5072068;28;20024;-72
2024/01/23 02:21:10;;;;;;;19.83;3.63;;;;;;;;;;5071841;28;20024;-72
2024/01/23 02:23:56;;;;;;;24.67;4.38;;;;;;;;;;5072657;28;20024;-72
2024/01/23 02:26:42;;;;;;;23.73;4.95;;;;;;;;;;5071275;28;20020;-72
2024/01/23 02:29:28;;;;;;;31.20;4.45;;;;;;;;;;5070503;28;20024;-72
2024/01/23 02:32:14;;;;;;;28.02;4.93;;;;;;;;;;5072203;28;20504;-72
2024/01/23 02:35:00;;;;;;;19.95;4.40;;;;;;;;;;5073917;28;20406;-72
2024/01/23 02:37:45;;;;;;;23.52;4.65;;;;;;;;;;5069107;28;20020;-72
2024/01/23 02:40:31;;;;;;;25.98;4.47;;;;;;;;;;5054679;28;20108;-72
2024/01/23 02:43:19;;;;;;;21.30;4.30;;;;;;;;;;5055184;28;20020;-72
2024/01/23 02:46:04;;;;;;;28.60;4.57;;;;;;;;;;5071156;28;20482;-72
2024/01/23 02:48:50;;;;;;;19.80;4.47;;;;;;;;;;5073345;28;20448;-72
2024/01/23 02:51:36;;;;;;;24.98;5.15;;;;;;;;;;5075085;28;20111;-73
2024/01/23 02:54:21;;;;;;;22.02;4.53;;;;;;;;;;5073471;28;20148;-72
2024/01/23 02:57:07;;;;;;;30.70;5.00;;;;;;;;;;5064775;28;20036;-72
2024/01/23 02:59:53;;;;;;;34.28;7.05;;;;;;;;;;5054948;28;20455;-72
2024/01/23 03:02:39;;;;;;;27.73;4.90;;;;;;;;;;5062055;28;20397;-72
2024/01/23 03:05:25;;;;;;;21.27;3.92;;;;;;;;;;5127143;22;20043;-69
2024/01/23 03:08:10;;;;;;;13.88;5.22;;;;;;;;;;5092928;28;20032;-69
2024/01/23 03:10:56;;;;;;;37.53;4.93;;;;;;;;;;5076913;28;20452;-69
2024/01/23 03:13:41;;;;;;;31.25;4.90;;;;;;;;;;5069845;28;20020;-69
2024/01/23 03:16:28;;;;;;;27.23;4.30;;;;;;;;;;5085299;28;20089;-70
2024/01/23 03:19:13;;;;;;;25.40;4.55;;;;;;;;;;5078677;28;20066;-69
2024/01/23 03:21:59;;;;;;;25.25;5.65;;;;;;;;;;5094205;28;20020;-69
2024/01/23 03:24:45;;;;;;;32.53;4.88;;;;;;;;;;5065530;28;20028;-69
2024/01/23 03:27:31;;;;;;;34.30;5.85;;;;;;;;;;5078816;28;20546;-69
2024/01/23 03:30:30;;;;;;;29.85;5.05;;;;;;;;;;5093578;28;20028;-69
2024/01/23 03:33:15;;;;;;;28.70;4.70;;;;;;;;;;5071729;28;20106;-69
2024/01/23 03:36:01;;;;;;;21.33;4.78;;;;;;;;;;5072381;28;20025;-69
2024/01/23 03:38:47;;;;;;;38.25;5.18;;;;;;;;;;5073835;28;20058;-69
2024/01/23 03:41:32;;;;;;;27.17;5.07;;;;;;;;;;5073385;28;20036;-69
2024/01/23 03:44:18;;;;;;;28.33;5.05;;;;;;;;;;5075533;28;20032;-69
2024/01/23 03:47:04;;;;;;;27.60;5.03;;;;;;;;;;5057638;28;20024;-69
2024/01/23 03:49:50;;;;;;;27.30;4.90;;;;;;;;;;5075012;28;20059;-69
2024/01/23 03:52:36;;;;;;;40.03;5.40;;;;;;;;;;5073549;28;20025;-69
2024/01/23 03:55:22;;;;;;;26.55;4.75;;;;;;;;;;5072769;28;20021;-69
2024/01/23 03:58:07;;;;;;;20.10;3.88;;;;;;;;;;5074731;28;20479;-68
2024/01/23 04:00:53;;;;;;;29.77;5.57;;;;;;;;;;5072787;28;20027;-69
2024/01/23 04:03:39;;;;;;;36.92;5.28;;;;;;;;;;5074356;28;20024;-69
2024/01/23 04:06:25;;;;;;;26.17;4.07;;;;;;;;;;5073255;28;20041;-69
2024/01/23 04:09:10;;;;;;;48.95;6.63;;;;;;;;;;5076686;28;20029;-69
2024/01/23 04:11:56;;;;;;;27.55;4.57;;;;;;;;;;5072080;28;20024;-69
2024/01/23 04:14:42;;;;;;;29.67;5.95;;;;;;;;;;5072611;28;20440;-69
2024/01/23 04:17:28;;;;;;;29.10;5.43;;;;;;;;;;5072744;28;20196;-68
2024/01/23 04:20:14;;;;;;;19.58;5.32;;;;;;;;;;5075125;28;20024;-69
2024/01/23 04:23:00;;;;;;;24.58;4.80;;;;;;;;;;5057532;28;20024;-69
2024/01/23 04:25:45;;;;;;;32.03;4.50;;;;;;;;;;5088816;28;20094;-68
2024/01/23 04:28:31;;;;;;;32.50;6.80;;;;;;;;;;5077685;28;20386;-68
2024/01/23 04:31:17;;;;;;;22.35;5.13;;;;;;;;;;5059062;28;20024;-69
2024/01/23 04:34:02;;;;;;;26.30;4.72;;;;;;;;;;5072145;28;20031;-69
2024/01/23 04:36:48;;;;;;;16.45;4.25;;;;;;;;;;5072830;28;20444;-69
2024/01/23 04:39:34;;;;;;;30.35;5.13;;;;;;;;;;5087757;28;20393;-68
2024/01/23 04:42:21;;;;;;;30.95;4.95;;;;;;;;;;5075469;28;20031;-69
2024/01/23 04:45:08;;;;;;;37.28;5.63;;;;;;;;;;5060331;28;20455;-68
2024/01/23 04:47:54;;;;;;;32.30;6.47;;;;;;;;;;5072402;28;20062;-69
2024/01/23 04:50:39;;;;;;;37.92;5.22;;;;;;;;;;5077229;28;20111;-69
2024/01/23 04:53:30;;;;;;;32.75;6.32;;;;;;;;;;5072149;28;20050;-69
2024/01/23 04:56:16;;;;;;;34.88;6.63;;;;;;;;;;5062332;28;20052;-69
2024/01/23 04:59:01;;;;;;;34.50;5.13;;;;;;;;;;5072101;28;20025;-68
2024/01/23 05:01:47;;;;;;;42.55;5.97;;;;;;;;;;5077256;28;20401;-69
2024/01/23 05:04:32;;;;;;;31.92;5.53;;;;;;;;;;5071061;28;20028;-69
2024/01/23 05:07:19;;;;;;;32.55;5.55;;;;;;;;;;5058774;28;20020;-68
2024/01/23 05:10:05;;;;;;;24.58;5.32;;;;;;;;;;5072637;28;20078;-69
2024/01/23 05:12:50;;;;;;;24.13;5.97;;;;;;;;;;5062264;28;20115;-68
2024/01/23 05:15:37;;;;;;;20.42;6.68;;;;;;;;;;5070903;28;20020;-69
2024/01/23 05:18:22;;;;;;;27.23;6.25;;;;;;;;;;5080035;28;20031;-69
2024/01/23 05:21:08;;;;;;;27.02;4.70;;;;;;;;;;5079273;28;20039;-69
2024/01/23 05:23:54;;;;;;;19.45;3.80;;;;;;;;;;5073022;28;20032;-69
2024/01/23 05:26:39;;;;;;;22.05;3.45;;;;;;;;;;5081455;28;20016;-69
2024/01/23 05:29:25;;;;;;;21.73;4.90;;;;;;;;;;5091345;28;20121;-68
2024/01/23 05:32:11;;;;;;;24.02;4.97;;;;;;;;;;5084219;28;20029;-69
2024/01/23 05:34:56;;;;;;;29.25;4.75;;;;;;;;;;5071971;28;20020;-69
2024/01/23 05:37:42;;;;;;;27.00;5.35;;;;;;;;;;5072686;28;20021;-69
2024/01/23 05:40:28;;;;;;;20.00;4.68;;;;;;;;;;5077826;28;20085;-69
2024/01/23 05:43:14;;;;;;;37.63;6.88;;;;;;;;;;5090602;28;20024;-67
2024/01/23 05:45:59;;;;;;;24.45;5.30;;;;;;;;;;5071578;28;20024;-69
2024/01/23 05:48:45;;;;;;;20.52;4.40;;;;;;;;;;5071150;28;20032;-69
2024/01/23 05:51:31;;;;;;;20.88;4.30;;;;;;;;;;5087807;28;20032;-69
2024/01/23 05:54:16;;;;;;;24.52;5.38;;;;;;;;;;5091035;28;20024;-69
2024/01/23 05:57:02;;;;;;;25.50;5.75;;;;;;;;;;5081498;28;20505;-69
2024/01/23 05:59:48;;;;;;;13.25;5.07;;;;;;;;;;5091359;28;20032;-69
2024/01/23 06:02:33;;;;;;;25.52;4.78;;;;;;;;;;5076055;28;20031;-69
2024/01/23 06:05:19;;;;;;;26.65;6.10;;;;;;;;;;5072426;28;20037;-69
2024/01/23 06:08:05;;;;;;;30.00;4.95;;;;;;;;;;5072260;28;20478;-69
2024/01/23 06:10:51;;;;;;;25.77;5.30;;;;;;;;;;5079313;28;20562;-68
2024/01/23 06:13:38;;;;;;;21.58;4.25;;;;;;;;;;5095409;28;20020;-69
2024/01/23 06:16:24;;;;;;;25.63;6.25;;;;;;;;;;5069155;28;20021;-69
2024/01/23 06:19:10;;;;;;;40.45;8.27;;;;;;;;;;5074662;28;20481;-69
2024/01/23 06:21:55;;;;;;;21.90;5.20;;;;;;;;;;5076059;28;20125;-69
2024/01/23 06:24:59;;;;;;;37.28;5.03;;;;;;;;;;5060756;28;20074;-69
2024/01/23 06:27:45;;;;;;;32.55;4.13;;;;;;;;;;5081168;28;20073;-69
2024/01/23 06:30:31;;;;;;;24.83;4.85;;;;;;;;;;5074990;28;20028;-69
2024/01/23 06:33:16;;;;;;;31.65;4.70;;;;;;;;;;5065618;28;20149;-69
2024/01/23 06:36:02;;;;;;;29.38;5.53;;;;;;;;;;5095030;28;20484;-69
2024/01/23 06:38:48;;;;;;;34.53;5.15;;;;;;;;;;5080136;28;20030;-69
2024/01/23 06:41:34;;;;;;;31.00;6.38;;;;;;;;;;5093646;28;20085;-69
2024/01/23 06:44:19;;;;;;;33.88;5.45;;;;;;;;;;5094281;28;20027;-69
2024/01/23 06:47:05;;;;;;;25.65;6.45;;;;;;;;;;5078229;28;20063;-69
2024/01/23 06:49:51;;;;;;;22.90;5.07;;;;;;;;;;5073297;28;20035;-69
2024/01/23 06:52:37;;;;;;;26.48;7.03;;;;;;;;;;5076115;28;20020;-69
2024/01/23 06:55:22;;;;;;;40.33;6.53;;;;;;;;;;5062849;28;20435;-70
2024/01/23 06:58:08;;;;;;;24.73;5.20;;;;;;;;;;5093775;28;20059;-70
2024/01/23 07:00:54;;;;;;;31.70;5.80;;;;;;;;;;5089503;28;20961;-69
2024/01/23 07:03:40;;;;;;;21.30;4.40;;;;;;;;;;5091197;28;20051;-69
2024/01/23 07:06:25;;;;;;;18.15;5.82;;;;;;;;;;5084778;28;20082;-69
2024/01/23 07:09:11;;;;;;;30.73;4.80;;;;;;;;;;5074011;28;20032;-69
2024/01/23 07:11:57;;;;;;;16.02;3.70;;;;;;;;;;5074929;28;20032;-69
2024/01/23 07:14:42;;;;;;;28.67;4.78;;;;;;;;;;5074017;28;20107;-69
2024/01/23 07:17:30;;;;;;;30.45;4.15;;;;;;;;;;5074702;28;20486;-69
2024/01/23 07:20:15;;;;;;;25.52;4.05;;;;;;;;;;5093558;28;20436;-69
2024/01/23 07:23:01;;;;;;;18.17;3.30;;;;;;;;;;5090644;28;20030;-69
2024/01/23 07:25:47;;;;;;;18.48;3.80;;;;;;;;;;5061420;28;20021;-69
2024/01/23 07:28:34;;;;;;;15.43;3.38;;;;;;;;;;5085834;28;20039;-69
2024/01/23 07:31:20;;;;;;;27.27;4.13;;;;;;;;;;5075286;28;20489;-69
2024/01/23 07:34:07;;;;;;;18.58;4.82;;;;;;;;;;5093446;28;20052;-69
2024/01/23 07:36:52;;;;;;;19.00;4.47;;;;;;;;;;5090411;28;20110;-69
2024/01/23 07:39:38;;;;;;;26.65;4.07;;;;;;;;;;5091779;28;20034;-69
2024/01/23 07:42:24;;;;;;;17.42;3.90;;;;;;;;;;5076287;28;20020;-69
2024/01/23 07:45:11;;;;;;;16.58;3.65;;;;;;;;;;5089840;28;20019;-68
2024/01/23 07:47:56;;;;;;;21.45;4.03;;;;;;;;;;5092084;28;20478;-69
2024/01/23 07:50:42;;;;;;;22.25;3.97;;;;;;;;;;5066833;28;20413;-69
2024/01/23 07:53:30;;;;;;;19.80;4.00;;;;;;;;;;5073037;28;20059;-69
2024/01/23 07:56:16;;;;;;;23.88;4.82;;;;;;;;;;5087937;28;20021;-69
2024/01/23 07:59:02;;;;;;;30.85;5.20;;;;;;;;;;5079495;28;20024;-69
2024/01/23 08:01:47;;;;;;;27.33;6.18;;;;;;;;;;5084375;28;20208;-69
2024/01/23 08:04:33;;;;;;;34.00;6.88;;;;;;;;;;5072407;28;20077;-68
2024/01/23 08:07:19;;;;;;;19.75;4.72;;;;;;;;;;5074831;28;20020;-69
2024/01/23 08:10:05;;;;;;;30.48;4.63;;;;;;;;;;5058184;28;20505;-69
2024/01/23 08:12:51;;;;;;;29.38;6.20;;;;;;;;;;5056534;28;20501;-69
2024/01/23 08:15:36;;;;;;;30.65;4.78;;;;;;;;;;5072037;28;20020;-69
2024/01/23 08:18:22;;;;;;;31.75;4.88;;;;;;;;;;5073574;28;20025;-69
2024/01/23 08:21:09;;;;;;;33.72;5.20;;;;;;;;;;5088672;28;20053;-68
2024/01/23 08:23:55;;;;;;;33.65;5.70;;;;;;;;;;5092619;28;20027;-69
2024/01/23 08:26:41;;;;;;;34.50;5.10;;;;;;;;;;5077731;28;20056;-69
2024/01/23 08:29:26;;;;;;;34.95;5.20;;;;;;;;;;5072429;28;20028;-69
2024/01/23 08:32:12;;;;;;;30.95;5.15;;;;;;;;;;5074388;28;20555;-69
2024/01/23 08:34:57;;;;;;;31.58;4.63;;;;;;;;;;5072395;28;20021;-69
2024/01/23 08:37:43;;;;;;;36.30;5.47;;;;;;;;;;5061886;28;20021;-69
2024/01/23 08:40:29;;;;;;;38.72;5.72;;;;;;;;;;5073782;28;20032;-69
2024/01/23 08:43:14;;;;;;;31.65;5.47;;;;;;;;;;5083298;28;20085;-69
2024/01/23 08:46:00;;;;;;;36.17;5.65;;;;;;;;;;5091905;28;20471;-69
2024/01/23 08:48:46;;;;;;;35.08;6.25;;;;;;;;;;5078468;28;20763;-69
2024/01/23 08:51:31;;;;;;;34.42;6.15;;;;;;;;;;5059969;28;20020;-69
2024/01/23 08:54:19;;;;;;;35.85;5.55;;;;;;;;;;5071916;28;20111;-69
2024/01/23 08:57:05;;;;;;;51.33;8.25;;;;;;;;;;5071859;28;20476;-69
2024/01/23 08:59:51;;;;;;;33.95;5.85;;;;;;;;;;5062194;28;20035;-69
2024/01/23 09:02:37;;;;;;;39.90;6.80;;;;;;;;;;5072496;28;20025;-69
2024/01/23 09:05:22;;;;;;;23.92;5.47;;;;;;;;;;5063228;28;20086;-69
2024/01/23 09:08:08;;;;;;;19.95;5.05;;;;;;;;;;5072645;28;20162;-69
2024/01/23 09:10:53;;;;;;;41.72;7.65;;;;;;;;;;5076218;28;20161;-69
2024/01/23 09:13:39;;;;;;;27.65;5.03;;;;;;;;;;5090649;28;20093;-68
2024/01/23 09:16:25;;;;;;;43.70;6.05;;;;;;;;;;5085351;28;20074;-69
2024/01/23 09:19:10;;;;;;;25.02;5.25;;;;;;;;;;5073131;28;20020;-69
2024/01/23 09:21:56;;;;;;;30.50;5.97;;;;;;;;;;5059480;28;20047;-70
2024/01/23 09:24:41;;;;;;;43.30;7.45;;;;;;;;;;5089005;28;20028;-69
2024/01/23 09:27:27;;;;;;;28.08;6.80;;;;;;;;;;5090950;28;20016;-69
2024/01/23 09:30:13;;;;;;;38.50;7.63;;;;;;;;;;5085169;28;20428;-68
2024/01/23 09:33:00;;;;;;;33.88;6.53;;;;;;;;;;5077290;28;20035;-70
2024/01/23 09:35:46;;;;;;;42.50;6.68;;;;;;;;;;5073292;28;20033;-70
2024/01/23 09:38:32;;;;;;;44.50;6.68;;;;;;;;;;5079554;28;20081;-70
2024/01/23 09:41:18;;;;;;;44.58;6.60;;;;;;;;;;5091179;28;20024;-70
2024/01/23 09:44:04;;;;;;;36.10;8.48;;;;;;;;;;5080189;28;20343;-70
2024/01/23 09:46:52;;;;;;;38.17;6.45;;;;;;;;;;5080242;28;20020;-70
2024/01/23 09:49:38;;;;;;;52.33;8.57;;;;;;;;;;5076724;28;20032;-70
2024/01/23 09:52:24;;;;;;;35.05;6.22;;;;;;;;;;5081723;28;20040;-69
2024/01/23 09:55:10;;;;;;;36.22;6.35;;;;;;;;;;5094939;28;20427;-70
2024/01/23 09:57:57;;;;;;;44.80;6.38;;;;;;;;;;5094722;28;20455;-69
2024/01/23 10:00:43;;;;;;;40.53;5.60;;;;;;;;;;5094980;28;20032;-70
2024/01/23 10:03:31;;;;;;;42.35;6.82;;;;;;;;;;5080548;28;20024;-69
2024/01/23 10:06:17;;;;;;;48.58;5.18;;;;;;;;;;5074797;28;20048;-68
2024/01/23 10:09:04;;;;;;;38.08;6.90;;;;;;;;;;5075290;28;20382;-70
2024/01/23 10:11:50;;;;;;;32.78;5.15;;;;;;;;;;5079282;28;20047;-69
2024/01/23 10:14:41;;;;;;;21.23;4.45;;;;;;;;;;5071265;28;20506;-70
2024/01/23 10:17:27;;;;;;;33.40;6.10;;;;;;;;;;5076299;28;20028;-70
2024/01/23 10:20:13;;;;;;;35.25;6.97;;;;;;;;;;5086966;28;20484;-70
2024/01/23 10:22:59;;;;;;;21.90;4.72;;;;;;;;;;5094241;28;20036;-70
2024/01/23 10:25:44;;;;;;;35.60;5.70;;;;;;;;;;5076279;28;20021;-70
2024/01/23 10:28:30;;;;;;;44.70;5.47;;;;;;;;;;5075456;28;20089;-69
2024/01/23 10:31:16;;;;;;;23.42;5.57;;;;;;;;;;5078338;28;20510;-71
2024/01/23 10:34:02;;;;;;;31.27;4.22;;;;;;;;;;5058615;28;20032;-70
2024/01/23 10:36:49;;;;;;;23.08;4.00;;;;;;;;;;5079360;28;20047;-70
2024/01/23 10:39:35;;;;;;;24.02;5.38;;;;;;;;;;5086061;28;20123;-70
2024/01/23 10:42:21;;;;;;;25.98;5.45;;;;;;;;;;5075084;28;20028;-70
2024/01/23 10:45:10;;;;;;;46.25;6.82;;;;;;;;;;5075568;28;20028;-69
2024/01/23 10:48:01;;;;;;;19.58;4.63;;;;;;;;;;5074094;28;20017;-70
2024/01/23 10:50:46;;;;;;;;;;;;;;;;;;5076653;28;20112;-70
2024/01/23 10:53:37;;;;;;;31.83;4.80;;;;;;;;;;5057807;28;19909;-70
2024/01/23 10:56:23;;;;;;;;;;;;;;;;;;5072912;28;20028;-70
2024/01/23 10:59:17;;;;;;;25.05;5.93;;;;;;;;;;5046343;28;19916;-70
2024/01/23 11:02:08;;;;;;;25.88;4.35;;;;;;;;;;5064539;28;20020;-70
2024/01/23 11:04:53;;;;;;;;;;;;;;;;;;5066684;28;20028;-69
2024/01/23 11:07:47;;;;;;;36.33;5.80;;;;;;;;;;5094316;28;19908;-70
2024/01/23 11:10:59;;;;;;;30.15;5.35;;;;;;;;;;5077575;28;20103;-69
2024/01/23 11:13:51;;;;;;;26.20;4.65;;;;;;;;;;5058502;28;20028;-70
2024/01/23 11:16:36;;;;;;;22.85;4.63;;;;;;;;;;5060762;28;20016;-68
2024/01/23 11:19:22;;;;;;;36.08;6.80;;;;;;;;;;5061261;28;20027;-69
2024/01/23 11:22:08;;;;;;;43.28;5.50;;;;;;;;;;5090487;28;20085;-69
2024/01/23 11:24:54;;;;;;;46.55;7.68;;;;;;;;;;5078818;28;20081;-69
2024/01/23 11:27:40;;;;;;;40.53;5.88;;;;;;;;;;5077505;28;20025;-70
2024/01/23 11:30:26;;;;;;;26.90;5.38;;;;;;;;;;5059581;28;20165;-69
2024/01/23 11:33:30;;;;;;;21.02;5.65;;;;;;;;;;5081672;28;20032;-69
2024/01/23 11:36:24;;;;;;;29.17;6.65;;;;;;;;;;5080305;28;20012;-70
2024/01/23 11:39:14;;;;;;;30.80;5.97;;;;;;;;;;5068724;28;20099;-69
2024/01/23 11:42:00;;;;;;;32.50;7.07;;;;;;;;;;5068615;28;20024;-70
2024/01/23 11:44:46;;;;;;;47.80;6.30;;;;;;;;;;5089403;28;20028;-70
2024/01/23 11:47:31;;;;;;;37.10;6.20;;;;;;;;;;5090876;28;20024;-69
2024/01/23 11:50:18;;;;;;;44.90;6.00;;;;;;;;;;5078595;28;20059;-70
2024/01/23 11:53:04;;;;;;;36.85;6.18;;;;;;;;;;5081347;28;20085;-69
2024/01/23 11:55:49;;;;;;;29.80;5.35;;;;;;;;;;5072066;28;20031;-69
2024/01/23 11:58:35;;;;;;;41.92;5.97;;;;;;;;;;5075713;28;20063;-69
2024/01/23 12:01:22;;;;;;;43.08;6.70;;;;;;;;;;5072523;28;20024;-69
2024/01/23 12:04:07;;;;;;;20.73;6.10;;;;;;;;;;5066975;28;20131;-69
2024/01/23 12:06:53;;;;;;;29.13;5.57;;;;;;;;;;5055835;28;20028;-69
2024/01/23 12:09:38;;;;;;;40.83;6.35;;;;;;;;;;5075831;28;20033;-69
2024/01/23 12:12:24;;;;;;;34.70;6.57;;;;;;;;;;5078359;28;20516;-69
2024/01/23 12:15:10;;;;;;;40.05;6.70;;;;;;;;;;5071913;28;20336;-69
2024/01/23 12:17:55;;;;;;;26.63;6.00;;;;;;;;;;5073699;28;20027;-70
2024/01/23 12:20:45;;;;;;;34.08;5.35;;;;;;;;;;5073729;28;20024;-69
2024/01/23 12:23:32;;;;;;;37.40;7.80;;;;;;;;;;5075700;28;20019;-70
2024/01/23 12:26:19;;;;;;;41.33;7.00;;;;;;;;;;5071087;28;20444;-69
2024/01/23 12:29:05;;;;;;;27.10;6.82;;;;;;;;;;5062717;28;20024;-70
2024/01/23 12:31:50;;;;;;;40.85;6.22;;;;;;;;;;5058222;28;20035;-70
2024/01/23 12:34:36;;;;;;;33.33;5.70;;;;;;;;;;5058221;28;20448;-69
2024/01/23 12:37:29;;;;;;;25.63;5.15;;;;;;;;;;5076917;28;20378;-70
2024/01/23 12:40:15;;;;;;;40.80;5.88;;;;;;;;;;5092122;28;20030;-70
2024/01/23 12:43:01;;;;;;;38.35;6.07;;;;;;;;;;5091892;28;20072;-70
2024/01/23 12:45:51;;;;;;;41.47;6.40;;;;;;;;;;5092110;28;20031;-70
2024/01/23 12:48:38;;;;;;;39.10;5.65;;;;;;;;;;5076332;28;20028;-70
2024/01/23 12:51:24;;;;;;;43.17;5.97;;;;;;;;;;5091828;28;20110;-70
2024/01/23 12:54:10;;;;;;;30.73;5.43;;;;;;;;;;5091983;28;20022;-71
2024/01/23 12:56:58;;;;;;;34.45;5.28;;;;;;;;;;5089818;28;20024;-70
2024/01/23 12:59:44;;;;;;;32.72;6.22;;;;;;;;;;5064121;28;20028;-71
2024/01/23 13:02:30;;;;;;;30.67;6.35;;;;;;;;;;5082976;28;20524;-70
2024/01/23 13:05:18;;;;;;;36.03;6.65;;;;;;;;;;5071713;28;20036;-70
2024/01/23 13:08:04;;;;;;;46.80;7.10;;;;;;;;;;5076922;28;20016;-70
2024/01/23 13:10:50;;;;;;;27.77;4.75;;;;;;;;;;5075244;28;20395;-70
2024/01/23 13:13:36;;;;;;;29.70;5.63;;;;;;;;;;5073400;28;20024;-70
2024/01/23 13:16:22;;;;;;;31.90;5.95;;;;;;;;;;5072946;28;20032;-70
2024/01/23 13:19:08;;;;;;;29.23;5.00;;;;;;;;;;5075509;28;20020;-70
2024/01/23 13:21:53;;;;;;;26.25;5.22;;;;;;;;;;5055815;28;20094;-70
2024/01/23 13:24:39;;;;;;;41.25;7.18;;;;;;;;;;5072434;28;20028;-71
2024/01/23 13:27:25;;;;;;;42.10;7.63;;;;;;;;;;5072425;28;20036;-70
2024/01/23 13:30:15;;;;;;;30.45;5.30;;;;;;;;;;5063331;28;20063;-70
2024/01/23 13:33:01;;;;;;;34.55;5.97;;;;;;;;;;5070747;28;20116;-70
2024/01/23 13:35:48;;;;;;;34.58;6.43;;;;;;;;;;5070069;28;20028;-70
2024/01/23 13:38:33;;;;;;;38.92;6.28;;;;;;;;;;5063792;28;20024;-71
2024/01/23 13:41:19;;;;;;;30.27;5.72;;;;;;;;;;5071687;28;20031;-71
2024/01/23 13:44:05;;;;;;;36.58;6.05;;;;;;;;;;5061462;28;20029;-71
2024/01/23 13:46:51;;;;;;;38.90;6.35;;;;;;;;;;5070717;28;20067;-70
2024/01/23 13:49:37;;;;;;;33.67;7.15;;;;;;;;;;5074634;28;20028;-71
2024/01/23 13:52:23;;;;;;;39.03;5.00;;;;;;;;;;5061650;28;20023;-70
2024/01/23 13:55:09;;;;;;;29.25;5.00;;;;;;;;;;5077050;28;20123;-71
2024/01/23 13:57:54;;;;;;;29.30;5.93;;;;;;;;;;5055911;28;20377;-70
2024/01/23 14:00:40;;;;;;;34.08;5.47;;;;;;;;;;5080142;28;20024;-70
2024/01/23 14:03:26;;;;;;;37.30;6.15;;;;;;;;;;5091110;28;20411;-70
2024/01/23 14:06:11;;;;;;;31.30;5.97;;;;;;;;;;5076115;28;20039;-71
2024/01/23 14:08:57;;;;;;;25.70;4.63;;;;;;;;;;5076684;28;20383;-70
2024/01/23 14:11:43;;;;;;;36.08;5.85;;;;;;;;;;5075077;28;20020;-70
2024/01/23 14:14:28;;;;;;;27.48;5.35;;;;;;;;;;5087911;28;20412;-70
2024/01/23 14:17:14;;;;;;;40.75;5.57;;;;;;;;;;5078054;28;20085;-70
2024/01/23 14:20:00;;;;;;;22.85;5.97;;;;;;;;;;5065448;28;20024;-70
2024/01/23 14:22:47;;;;;;;36.92;5.85;;;;;;;;;;5072745;28;20026;-70
2024/01/23 14:25:32;;;;;;;27.55;6.18;;;;;;;;;;5063278;28;20036;-70
2024/01/23 14:28:18;;;;;;;48.10;8.07;;;;;;;;;;5064385;28;20082;-71
2024/01/23 14:31:03;;;;;;;39.38;5.60;;;;;;;;;;5055086;28;20067;-69
2024/01/23 14:33:49;;;;;;;43.45;6.45;;;;;;;;;;5083327;28;20438;-70
2024/01/23 14:36:35;;;;;;;32.28;4.57;;;;;;;;;;5078133;28;20386;-70
2024/01/23 14:39:20;;;;;;;33.25;5.70;;;;;;;;;;5076587;28;20493;-70
2024/01/23 14:42:06;;;;;;;40.10;7.00;;;;;;;;;;5080448;28;20059;-70
2024/01/23 14:44:53;;;;;;;41.67;5.80;;;;;;;;;;5069861;28;20085;-70
2024/01/23 14:47:39;;;;;;;41.83;7.43;;;;;;;;;;5080722;28;20028;-70
2024/01/23 14:50:25;;;;;;;40.00;5.78;;;;;;;;;;5080833;28;20024;-71
2024/01/23 14:53:10;;;;;;;40.65;8.45;;;;;;;;;;5084586;28;20077;-71
2024/01/23 14:55:56;;;;;;;28.10;6.90;;;;;;;;;;5069538;28;20023;-70
2024/01/23 14:58:42;;;;;;;32.25;6.65;;;;;;;;;;5071367;28;20023;-71
2024/01/23 15:01:27;;;;;;;36.40;6.85;;;;;;;;;;5059935;28;20047;-71
2024/01/23 15:04:13;;;;;;;48.75;6.68;;;;;;;;;;5080456;28;20031;-71
2024/01/23 15:06:59;;;;;;;42.42;6.53;;;;;;;;;;5092432;23;20072;-73
2024/01/23 15:09:44;;;;;;;41.20;6.97;;;;;;;;;;5062945;28;20087;-74
2024/01/23 15:12:30;;;;;;;37.42;5.57;;;;;;;;;;5055228;28;20020;-74
2024/01/23 15:15:15;;;;;;;63.38;8.60;;;;;;;;;;5059033;28;20029;-73
2024/01/23 15:18:01;;;;;;;41.70;5.72;;;;;;;;;;5044995;28;20132;-73
2024/01/23 15:20:47;;;;;;;41.40;9.43;;;;;;;;;;5032197;28;20029;-74
2024/01/23 15:23:33;;;;;;;29.25;6.05;;;;;;;;;;5034562;28;20116;-75
2024/01/23 15:26:19;;;;;;;42.92;8.32;;;;;;;;;;5045508;28;20029;-75
2024/01/23 15:29:04;;;;;;;25.33;5.75;;;;;;;;;;5031525;28;20025;-75
2024/01/23 15:31:50;;;;;;;43.60;7.50;;;;;;;;;;5042798;28;20028;-74
2024/01/23 15:34:36;;;;;;;34.85;7.07;;;;;;;;;;5041538;28;20032;-73
2024/01/23 15:37:22;;;;;;;39.05;7.28;;;;;;;;;;5025921;28;20043;-74
2024/01/23 15:40:08;;;;;;;43.03;6.63;;;;;;;;;;5032329;28;20053;-75
2024/01/23 15:42:53;;;;;;;35.88;6.88;;;;;;;;;;5046817;28;20393;-73
2024/01/23 15:45:39;;;;;;;34.83;6.15;;;;;;;;;;5025061;28;20044;-72
2024/01/23 15:48:25;;;;;;;47.03;8.68;;;;;;;;;;5049858;28;20040;-73
2024/01/23 15:51:10;;;;;;;34.33;6.47;;;;;;;;;;5032965;28;20567;-73
2024/01/23 15:53:58;;;;;;;43.17;7.32;;;;;;;;;;5049009;28;20036;-73
2024/01/23 15:56:43;;;;;;;19.80;5.50;;;;;;;;;;5040888;28;20047;-72
2024/01/23 15:59:29;;;;;;;37.42;5.90;;;;;;;;;;5025953;28;20032;-72
2024/01/23 16:02:15;;;;;;;55.38;8.48;;;;;;;;;;5041731;28;20491;-73
2024/01/23 16:05:00;;;;;;;33.63;7.13;;;;;;;;;;5046801;28;20111;-72
2024/01/23 16:07:46;;;;;;;40.42;5.07;;;;;;;;;;5042275;28;20482;-73
2024/01/23 16:10:32;;;;;;;24.17;4.97;;;;;;;;;;5043638;28;20045;-73
2024/01/23 16:13:17;;;;;;;49.53;6.10;;;;;;;;;;5043766;28;20626;-72
2024/01/23 16:16:03;;;;;;;31.70;5.63;;;;;;;;;;5043087;28;20112;-72
2024/01/23 16:18:49;;;;;;;36.97;5.60;;;;;;;;;;5030963;28;20025;-74
2024/01/23 16:21:34;;;;;;;31.98;5.97;;;;;;;;;;5024705;28;20036;-73